Manns Choice, Pennsylvania
Current Conditions -  °F | °C
As of 7:55 AM on Friday 19 Dec 2014 (Local Time) from K2G9 Reporting Station
Overcast Overcast  
Wind Chill: 15°   Ceiling: 800
Heat Index: 23°   Visibility: 10mi
Dew Point: 21°   Wind: 7mph
Humidity: 93%   Direction: 280°W
Pressure: 30.1"   Gusts: NA
Location:  40°N, 78.59°W
Report Text: K2G9 191255Z AUTO 28006KT 10SM OVC008 M05/M06 A3010 RMK AO2
Loading
Personal Weather Stations






























Interactive Weather Map New forecast layout! Learn more

10-Day Weather Forecast

Advertisements
Track Severe Weather on mobile